Time;durP1;ratioP1;P1;durP2;ratioP2;P2;SDS_P1;SDS_P2;PMS_P1;PMS_P2;Temp;Humidity;BMP_temperature;BMP_pressure;BME280_temperature;BME280_humidity;BME280_pressure;Samples;Min_cycle;Max_cycle;Signal;HPM_P1;HPM_P2
2023/08/09 00:00:12;;;;;;;5.38;4.10;;;;;;;;;;5032090;28;20042;-77
2023/08/09 00:03:01;;;;;;;4.50;4.00;;;;;;;;;;5031826;28;20042;-78
2023/08/09 00:05:46;;;;;;;7.35;4.70;;;;;;;;;;5033255;28;20057;-77
2023/08/09 00:08:32;;;;;;;4.28;3.78;;;;;;;;;;5032583;28;20484;-78
2023/08/09 00:11:17;;;;;;;10.63;4.13;;;;;;;;;;5032745;28;20049;-79
2023/08/09 00:14:03;;;;;;;4.25;3.53;;;;;;;;;;5032858;28;20054;-79
2023/08/09 00:16:49;;;;;;;6.45;4.60;;;;;;;;;;5032359;28;20049;-80
2023/08/09 00:19:34;;;;;;;4.63;4.03;;;;;;;;;;5032843;28;20045;-77
2023/08/09 00:22:20;;;;;;;5.97;4.28;;;;;;;;;;5032803;28;20053;-78
2023/08/09 00:25:07;;;;;;;6.72;3.97;;;;;;;;;;5032225;28;20384;-75
2023/08/09 00:27:53;;;;;;;4.93;4.43;;;;;;;;;;5032679;28;20037;-78
2023/08/09 00:30:40;;;;;;;6.13;4.10;;;;;;;;;;5032332;28;20053;-80
2023/08/09 00:33:25;;;;;;;7.00;4.50;;;;;;;;;;5032291;28;20041;-79
2023/08/09 00:36:11;;;;;;;7.10;4.30;;;;;;;;;;5026798;28;20480;-77
2023/08/09 00:38:56;;;;;;;4.97;4.15;;;;;;;;;;5033762;28;20488;-77
2023/08/09 00:41:42;;;;;;;7.88;4.10;;;;;;;;;;5034209;28;20037;-77
2023/08/09 00:44:27;;;;;;;6.35;4.70;;;;;;;;;;5034973;28;20480;-76
2023/08/09 00:47:14;;;;;;;6.03;4.00;;;;;;;;;;5035389;28;20045;-77
2023/08/09 00:49:59;;;;;;;8.48;4.10;;;;;;;;;;5026361;28;20045;-78
2023/08/09 00:52:45;;;;;;;7.00;4.32;;;;;;;;;;5019271;28;20041;-79
2023/08/09 00:55:30;;;;;;;5.50;3.88;;;;;;;;;;5031812;28;20045;-78
2023/08/09 00:58:15;;;;;;;4.30;3.90;;;;;;;;;;5016709;28;20046;-77
2023/08/09 01:01:01;;;;;;;7.25;4.50;;;;;;;;;;5031827;28;20045;-77
2023/08/09 01:03:47;;;;;;;7.85;4.47;;;;;;;;;;5032061;28;20492;-78
2023/08/09 01:06:44;;;;;;;5.97;4.40;;;;;;;;;;5023117;28;20400;-80
2023/08/09 01:09:56;;;;;;;5.13;3.97;;;;;;;;;;5023602;28;20049;-76
2023/08/09 01:12:49;;;;;;;5.40;4.60;;;;;;;;;;5031056;28;20041;-80
2023/08/09 01:15:39;;;;;;;7.32;4.50;;;;;;;;;;5031469;28;20049;-79
2023/08/09 01:18:27;;;;;;;10.70;4.50;;;;;;;;;;5037320;28;20049;-77
2023/08/09 01:21:13;;;;;;;7.32;4.95;;;;;;;;;;5031622;28;20045;-78
2023/08/09 01:23:59;;;;;;;9.88;5.10;;;;;;;;;;5023067;28;20057;-77
2023/08/09 01:26:45;;;;;;;6.63;4.53;;;;;;;;;;5036416;28;20041;-80
2023/08/09 01:29:30;;;;;;;8.73;4.63;;;;;;;;;;5023035;28;20037;-79
2023/08/09 01:32:15;;;;;;;6.55;4.70;;;;;;;;;;5030043;28;20045;-77
2023/08/09 01:35:01;;;;;;;8.93;5.47;;;;;;;;;;5031294;28;20042;-78
2023/08/09 01:37:54;;;;;;;6.22;4.53;;;;;;;;;;5031222;28;20408;-77
2023/08/09 01:40:41;;;;;;;5.15;4.55;;;;;;;;;;5029768;28;20484;-76
2023/08/09 01:43:27;;;;;;;5.28;4.78;;;;;;;;;;5030822;28;20416;-81
2023/08/09 01:46:13;;;;;;;6.07;4.63;;;;;;;;;;5036248;28;20046;-78
2023/08/09 01:49:09;;;;;;;7.15;4.95;;;;;;;;;;5031003;28;20492;-78
2023/08/09 01:51:55;;;;;;;8.32;4.85;;;;;;;;;;5030981;28;20045;-78
2023/08/09 01:54:41;;;;;;;6.70;5.28;;;;;;;;;;5030883;28;20045;-77
2023/08/09 01:57:27;;;;;;;8.35;4.93;;;;;;;;;;5015779;28;20049;-77
2023/08/09 02:00:19;;;;;;;5.70;4.72;;;;;;;;;;5005570;28;20054;-78
2023/08/09 02:03:04;;;;;;;5.50;4.88;;;;;;;;;;5001027;28;20492;-77
2023/08/09 02:05:49;;;;;;;6.53;5.13;;;;;;;;;;5007007;28;20054;-78
2023/08/09 02:08:35;;;;;;;6.82;5.30;;;;;;;;;;5013329;28;20477;-77
2023/08/09 02:11:20;;;;;;;6.18;4.72;;;;;;;;;;5011288;28;20062;-80
2023/08/09 02:14:07;;;;;;;6.25;5.20;;;;;;;;;;5008789;28;20042;-78
2023/08/09 02:16:53;;;;;;;5.72;5.13;;;;;;;;;;5016325;28;20428;-79
2023/08/09 02:19:38;;;;;;;8.70;5.28;;;;;;;;;;5016508;28;20050;-79
2023/08/09 02:22:25;;;;;;;7.55;5.25;;;;;;;;;;4997141;28;20393;-79
2023/08/09 02:25:11;;;;;;;6.60;5.03;;;;;;;;;;5009134;28;20046;-80
2023/08/09 02:27:57;;;;;;;8.25;5.15;;;;;;;;;;4997452;28;20045;-80
2023/08/09 02:30:42;;;;;;;7.60;4.82;;;;;;;;;;5002308;28;20054;-78
2023/08/09 02:33:28;;;;;;;6.45;5.47;;;;;;;;;;4997071;28;20049;-77
2023/08/09 02:36:13;;;;;;;5.65;4.70;;;;;;;;;;5016477;28;20046;-79
2023/08/09 02:39:00;;;;;;;5.40;4.75;;;;;;;;;;5008960;28;20054;-80
2023/08/09 02:41:45;;;;;;;5.35;4.82;;;;;;;;;;4997412;28;20042;-79
2023/08/09 02:44:32;;;;;;;7.75;5.20;;;;;;;;;;4997243;28;20047;-79
2023/08/09 02:47:18;;;;;;;5.55;5.00;;;;;;;;;;5016334;28;20420;-77
2023/08/09 02:50:06;;;;;;;6.28;4.70;;;;;;;;;;4996897;28;20045;-78
2023/08/09 02:52:51;;;;;;;6.22;4.93;;;;;;;;;;5001874;28;20038;-79
2023/08/09 02:55:36;;;;;;;6.70;5.05;;;;;;;;;;4995894;28;20041;-78
2023/08/09 02:58:21;;;;;;;7.53;5.20;;;;;;;;;;5002659;28;20528;-80
2023/08/09 03:01:07;;;;;;;6.70;5.32;;;;;;;;;;4992157;28;20050;-78
2023/08/09 03:03:54;;;;;;;5.93;5.07;;;;;;;;;;4992077;28;20046;-80
2023/08/09 03:06:39;;;;;;;6.70;5.15;;;;;;;;;;4992482;28;20043;-78
2023/08/09 03:09:26;;;;;;;6.28;5.47;;;;;;;;;;4992781;28;20042;-78
2023/08/09 03:12:12;;;;;;;8.43;5.85;;;;;;;;;;4986454;28;20051;-77
2023/08/09 03:14:57;;;;;;;11.07;5.57;;;;;;;;;;4992088;28;20046;-78
2023/08/09 03:17:42;;;;;;;6.72;5.60;;;;;;;;;;4992298;28;20046;-78
2023/08/09 03:20:29;;;;;;;9.18;5.40;;;;;;;;;;4999664;28;20043;-78
2023/08/09 03:23:15;;;;;;;7.95;5.45;;;;;;;;;;4987216;28;20149;-80
2023/08/09 03:26:00;;;;;;;8.93;5.32;;;;;;;;;;4995616;28;20042;-79
2023/08/09 03:28:46;;;;;;;8.32;5.72;;;;;;;;;;4995894;28;20038;-79
2023/08/09 03:31:33;;;;;;;11.77;6.00;;;;;;;;;;4995304;28;20401;-78
2023/08/09 03:34:19;;;;;;;8.52;6.55;;;;;;;;;;4980612;28;20046;-80
2023/08/09 03:37:05;;;;;;;10.70;6.15;;;;;;;;;;4990235;28;20042;-78
2023/08/09 03:39:51;;;;;;;10.15;5.63;;;;;;;;;;4988252;28;20046;-78
2023/08/09 03:42:37;;;;;;;9.25;5.45;;;;;;;;;;4988381;28;20421;-77
2023/08/09 03:45:23;;;;;;;10.10;5.20;;;;;;;;;;4979495;28;20409;-79
2023/08/09 03:48:08;;;;;;;5.85;5.25;;;;;;;;;;4981802;28;20042;-80
2023/08/09 03:50:53;;;;;;;9.23;5.82;;;;;;;;;;4988696;28;20046;-78
2023/08/09 03:53:39;;;;;;;10.88;5.80;;;;;;;;;;4989498;28;20038;-77
2023/08/09 03:56:25;;;;;;;8.38;5.82;;;;;;;;;;4985856;28;20050;-78
2023/08/09 03:59:10;;;;;;;7.65;5.60;;;;;;;;;;4974981;28;20412;-78
2023/08/09 04:01:56;;;;;;;8.70;5.72;;;;;;;;;;4999338;28;20050;-79
2023/08/09 04:04:41;;;;;;;6.45;5.75;;;;;;;;;;5006637;28;20045;-78
2023/08/09 04:07:27;;;;;;;10.02;5.63;;;;;;;;;;4992887;28;20072;-77
2023/08/09 04:10:12;;;;;;;9.63;5.43;;;;;;;;;;5000098;28;20057;-78
2023/08/09 04:12:58;;;;;;;10.70;5.63;;;;;;;;;;5007804;28;20053;-78
2023/08/09 04:15:43;;;;;;;6.80;5.90;;;;;;;;;;5012873;28;20057;-78
2023/08/09 04:18:27;;;;;;;14.55;6.00;;;;;;;;;;5006559;28;20441;-77
2023/08/09 04:21:14;;;;;;;10.30;5.72;;;;;;;;;;4999521;28;20042;-80
2023/08/09 04:23:58;;;;;;;9.43;6.32;;;;;;;;;;5008156;28;20058;-79
2023/08/09 04:26:44;;;;;;;10.40;6.50;;;;;;;;;;5007772;28;20042;-80
2023/08/09 04:29:30;;;;;;;11.65;5.80;;;;;;;;;;5008106;28;20053;-77
2023/08/09 04:32:15;;;;;;;8.10;5.15;;;;;;;;;;5007746;28;20497;-79
2023/08/09 04:35:01;;;;;;;7.55;5.28;;;;;;;;;;5007517;28;20042;-78
2023/08/09 04:37:46;;;;;;;11.98;5.75;;;;;;;;;;5008219;28;20049;-78
2023/08/09 04:40:34;;;;;;;8.38;6.32;;;;;;;;;;5008173;28;20392;-78
2023/08/09 04:43:20;;;;;;;13.75;6.50;;;;;;;;;;5007205;28;20157;-77
2023/08/09 04:46:05;;;;;;;7.90;6.13;;;;;;;;;;5007954;28;20033;-79
2023/08/09 04:48:51;;;;;;;10.57;6.80;;;;;;;;;;4997845;28;20045;-79
2023/08/09 04:51:36;;;;;;;10.02;6.18;;;;;;;;;;5007274;28;20037;-78
2023/08/09 04:54:22;;;;;;;9.23;5.97;;;;;;;;;;5007353;28;20034;-77
2023/08/09 04:57:07;;;;;;;8.43;5.45;;;;;;;;;;5006047;28;20054;-77
2023/08/09 04:59:52;;;;;;;10.95;5.75;;;;;;;;;;5007101;28;20037;-78
2023/08/09 05:02:38;;;;;;;7.40;5.70;;;;;;;;;;5007477;28;20050;-78
2023/08/09 05:05:23;;;;;;;8.27;5.55;;;;;;;;;;4999767;28;20049;-77
2023/08/09 05:08:08;;;;;;;8.57;6.03;;;;;;;;;;5007147;28;20417;-77
2023/08/09 05:10:54;;;;;;;9.77;6.43;;;;;;;;;;5007347;28;20141;-77
2023/08/09 05:13:39;;;;;;;8.60;6.20;;;;;;;;;;5006820;28;20050;-76
2023/08/09 05:16:25;;;;;;;7.72;4.80;;;;;;;;;;5007137;28;20053;-79
2023/08/09 05:19:10;;;;;;;7.15;4.50;;;;;;;;;;4998424;28;20493;-79
2023/08/09 05:21:56;;;;;;;5.15;4.00;;;;;;;;;;5006010;28;20038;-78
2023/08/09 05:24:41;;;;;;;8.07;4.00;;;;;;;;;;5006347;28;20041;-78
2023/08/09 05:27:27;;;;;;;7.07;4.18;;;;;;;;;;4997935;28;20054;-78
2023/08/09 05:30:16;;;;;;;6.45;4.20;;;;;;;;;;5006552;28;20791;-79
2023/08/09 05:33:01;;;;;;;7.72;4.10;;;;;;;;;;4998915;28;20062;-79
2023/08/09 05:35:47;;;;;;;5.80;4.47;;;;;;;;;;5006587;28;20050;-77
2023/08/09 05:38:32;;;;;;;6.00;3.72;;;;;;;;;;5006036;28;20476;-76
2023/08/09 05:41:17;;;;;;;8.35;4.50;;;;;;;;;;5006690;28;20042;-76
2023/08/09 05:44:03;;;;;;;8.05;4.78;;;;;;;;;;5006603;28;20050;-77
2023/08/09 05:46:48;;;;;;;25.50;4.80;;;;;;;;;;5006358;28;20053;-77
2023/08/09 05:49:34;;;;;;;5.78;4.10;;;;;;;;;;5000672;28;20911;-77
2023/08/09 05:52:19;;;;;;;7.13;4.00;;;;;;;;;;5006726;28;20053;-78
2023/08/09 05:55:05;;;;;;;8.90;4.00;;;;;;;;;;4998470;28;20448;-76
2023/08/09 05:57:50;;;;;;;5.13;4.13;;;;;;;;;;5005850;28;20041;-79
2023/08/09 06:00:37;;;;;;;4.82;3.70;;;;;;;;;;5006071;28;20054;-79
2023/08/09 06:03:23;;;;;;;5.57;3.88;;;;;;;;;;5004762;28;20053;-78
2023/08/09 06:06:12;;;;;;;3.97;3.30;;;;;;;;;;5006149;28;20050;-79
2023/08/09 06:08:58;;;;;;;7.13;4.20;;;;;;;;;;5005298;28;20050;-78
2023/08/09 06:11:43;;;;;;;4.22;3.50;;;;;;;;;;5005226;28;20050;-78
2023/08/09 06:14:29;;;;;;;9.55;4.25;;;;;;;;;;5004224;28;20058;-79
2023/08/09 06:17:14;;;;;;;8.98;4.45;;;;;;;;;;5005381;28;20046;-79
2023/08/09 06:20:00;;;;;;;5.35;3.90;;;;;;;;;;5004897;28;20392;-77
2023/08/09 06:22:46;;;;;;;4.72;4.05;;;;;;;;;;5004915;28;20038;-77
2023/08/09 06:25:31;;;;;;;4.93;3.38;;;;;;;;;;5004770;28;20042;-77
2023/08/09 06:28:17;;;;;;;6.40;3.28;;;;;;;;;;5004234;28;20389;-76
2023/08/09 06:31:02;;;;;;;6.45;3.20;;;;;;;;;;4996801;28;20050;-77
2023/08/09 06:33:48;;;;;;;10.23;3.78;;;;;;;;;;5002439;28;20045;-77
2023/08/09 06:36:34;;;;;;;4.45;3.67;;;;;;;;;;5005234;28;20491;-78
2023/08/09 06:39:19;;;;;;;6.13;4.20;;;;;;;;;;5005139;28;20388;-77
2023/08/09 06:42:05;;;;;;;5.60;3.60;;;;;;;;;;5004692;28;20047;-78
2023/08/09 06:44:51;;;;;;;6.43;3.60;;;;;;;;;;5004786;28;20049;-79
2023/08/09 06:47:36;;;;;;;4.32;3.55;;;;;;;;;;5004592;28;20042;-80
2023/08/09 06:50:22;;;;;;;4.05;3.45;;;;;;;;;;4994867;28;20045;-77
2023/08/09 06:53:08;;;;;;;5.97;3.28;;;;;;;;;;5005278;28;20045;-79
2023/08/09 06:55:53;;;;;;;3.63;3.33;;;;;;;;;;5006166;28;20050;-80
2023/08/09 06:58:39;;;;;;;3.90;3.30;;;;;;;;;;5004754;28;20050;-77
2023/08/09 07:01:24;;;;;;;6.22;3.50;;;;;;;;;;4998207;28;20045;-77
2023/08/09 07:04:09;;;;;;;5.85;3.53;;;;;;;;;;5007727;28;20079;-76
2023/08/09 07:06:55;;;;;;;9.48;4.18;;;;;;;;;;5008744;28;20784;-79
2023/08/09 07:09:40;;;;;;;4.43;3.30;;;;;;;;;;5010020;28;20046;-77
2023/08/09 07:12:25;;;;;;;6.90;3.72;;;;;;;;;;5011859;28;20033;-79
2023/08/09 07:15:11;;;;;;;5.50;3.28;;;;;;;;;;5005074;28;20481;-78
2023/08/09 07:17:57;;;;;;;4.90;3.47;;;;;;;;;;5012674;28;20480;-79
2023/08/09 07:20:42;;;;;;;6.75;3.65;;;;;;;;;;5012011;28;20042;-78
2023/08/09 07:23:28;;;;;;;7.10;3.83;;;;;;;;;;5012194;28;20053;-77
2023/08/09 07:26:13;;;;;;;3.85;3.22;;;;;;;;;;5012839;28;20041;-78
2023/08/09 07:28:59;;;;;;;7.05;3.42;;;;;;;;;;5012056;28;20041;-78
2023/08/09 07:31:45;;;;;;;6.00;3.28;;;;;;;;;;5013140;28;20042;-79
2023/08/09 07:34:30;;;;;;;4.25;3.40;;;;;;;;;;5012019;28;20389;-77
2023/08/09 07:37:15;;;;;;;9.57;4.32;;;;;;;;;;5012195;28;20034;-80
2023/08/09 07:40:03;;;;;;;4.90;3.70;;;;;;;;;;5012519;28;20496;-78
2023/08/09 07:42:47;;;;;;;3.83;2.85;;;;;;;;;;5013532;28;20050;-79
2023/08/09 07:45:33;;;;;;;5.32;3.67;;;;;;;;;;5013450;28;20050;-79
2023/08/09 07:48:19;;;;;;;6.55;4.30;;;;;;;;;;5013144;28;20484;-79
2023/08/09 07:51:06;;;;;;;4.63;3.72;;;;;;;;;;5011890;28;20050;-79
2023/08/09 07:53:51;;;;;;;9.05;3.50;;;;;;;;;;5011270;28;20034;-79
2023/08/09 07:56:36;;;;;;;8.35;2.80;;;;;;;;;;5003967;28;20400;-79
2023/08/09 07:59:21;;;;;;;5.57;3.17;;;;;;;;;;5010781;28;20046;-80
2023/08/09 08:02:07;;;;;;;3.78;3.10;;;;;;;;;;5002690;28;20050;-76
2023/08/09 08:04:52;;;;;;;9.73;3.45;;;;;;;;;;5010506;28;20042;-77
2023/08/09 08:07:39;;;;;;;5.15;3.00;;;;;;;;;;4994983;28;20038;-78
2023/08/09 08:10:24;;;;;;;4.85;2.95;;;;;;;;;;4991493;28;20054;-78
2023/08/09 08:13:09;;;;;;;13.05;8.02;;;;;;;;;;4997938;28;20042;-79
2023/08/09 08:15:55;;;;;;;6.03;3.00;;;;;;;;;;5000524;28;20417;-78
2023/08/09 08:18:40;;;;;;;3.80;2.88;;;;;;;;;;5006011;28;20056;-79
2023/08/09 08:21:26;;;;;;;3.58;2.85;;;;;;;;;;5007215;28;20042;-77
2023/08/09 08:24:12;;;;;;;3.05;2.60;;;;;;;;;;5008313;28;20041;-78
2023/08/09 08:26:58;;;;;;;6.80;2.55;;;;;;;;;;5008197;28;20042;-78
2023/08/09 08:29:44;;;;;;;4.07;2.58;;;;;;;;;;5008311;28;20505;-81
2023/08/09 08:32:29;;;;;;;4.55;2.88;;;;;;;;;;5005036;28;20054;-79
2023/08/09 08:35:20;;;;;;;3.30;2.63;;;;;;;;;;5000211;28;20046;-79
2023/08/09 08:38:05;;;;;;;4.68;2.70;;;;;;;;;;5007530;28;20037;-77
2023/08/09 08:40:52;;;;;;;3.30;2.50;;;;;;;;;;5007236;28;20041;-78
2023/08/09 08:43:38;;;;;;;5.03;3.58;;;;;;;;;;5008000;28;20042;-77
2023/08/09 08:46:26;;;;;;;4.20;3.15;;;;;;;;;;5007179;28;20038;-79
2023/08/09 08:49:15;;;;;;;32.28;25.60;;;;;;;;;;5007437;28;20046;-76
2023/08/09 08:52:06;;;;;;;18.63;14.93;;;;;;;;;;5013504;28;20046;-79
2023/08/09 08:54:52;;;;;;;18.13;11.13;;;;;;;;;;5013179;28;20041;-78
2023/08/09 08:57:39;;;;;;;39.33;30.35;;;;;;;;;;4993097;28;20046;-78
2023/08/09 09:00:24;;;;;;;7.10;3.60;;;;;;;;;;5007775;28;20041;-80
2023/08/09 09:03:10;;;;;;;5.45;2.83;;;;;;;;;;4998600;28;20053;-79
2023/08/09 09:05:55;;;;;;;25.85;20.20;;;;;;;;;;5007741;28;20046;-77
2023/08/09 09:08:42;;;;;;;9.15;6.70;;;;;;;;;;5008034;28;20448;-76
2023/08/09 09:11:28;;;;;;;10.73;6.13;;;;;;;;;;5004163;28;20041;-76
2023/08/09 09:14:15;;;;;;;4.35;3.17;;;;;;;;;;5006842;28;20050;-76
2023/08/09 09:17:01;;;;;;;5.75;3.13;;;;;;;;;;5006796;28;20050;-77
2023/08/09 09:19:47;;;;;;;6.45;2.70;;;;;;;;;;4991610;28;20050;-76
2023/08/09 09:22:34;;;;;;;4.50;2.92;;;;;;;;;;5006220;28;20037;-80
2023/08/09 09:25:22;;;;;;;13.77;3.33;;;;;;;;;;5006384;28;20057;-76
2023/08/09 09:28:08;;;;;;;7.40;2.92;;;;;;;;;;5005954;28;20042;-79
2023/08/09 09:30:58;;;;;;;7.07;2.78;;;;;;;;;;5006868;28;20053;-77
2023/08/09 09:33:46;;;;;;;4.07;2.70;;;;;;;;;;5007486;28;20050;-78
2023/08/09 09:36:31;;;;;;;7.05;3.30;;;;;;;;;;4995885;28;20468;-79
2023/08/09 09:39:17;;;;;;;7.57;4.32;;;;;;;;;;5007934;28;20042;-77
2023/08/09 09:42:02;;;;;;;3.88;2.30;;;;;;;;;;5006836;28;20485;-78
2023/08/09 09:44:47;;;;;;;3.08;2.25;;;;;;;;;;5006579;28;20041;-78
2023/08/09 09:47:40;;;;;;;3.72;2.00;;;;;;;;;;5006103;28;20037;-77
2023/08/09 09:50:34;;;;;;;3.15;2.10;;;;;;;;;;5006178;28;20049;-75
2023/08/09 09:53:19;;;;;;;2.92;1.90;;;;;;;;;;5006094;28;20050;-77
2023/08/09 09:56:05;;;;;;;2.20;1.65;;;;;;;;;;5005746;28;20050;-77
2023/08/09 09:58:50;;;;;;;3.80;2.08;;;;;;;;;;5006002;28;20042;-79
2023/08/09 10:01:41;;;;;;;3.63;2.10;;;;;;;;;;5006425;28;20046;-76
2023/08/09 10:04:27;;;;;;;3.78;1.55;;;;;;;;;;5005268;28;20058;-78
2023/08/09 10:07:14;;;;;;;3.90;1.58;;;;;;;;;;4991253;28;20062;-80
2023/08/09 10:10:02;;;;;;;10.23;5.72;;;;;;;;;;5005591;28;20042;-78
2023/08/09 10:12:55;;;;;;;4.28;1.90;;;;;;;;;;5006084;28;20049;-77
2023/08/09 10:15:44;;;;;;;3.13;1.98;;;;;;;;;;5005553;28;20045;-79
2023/08/09 10:18:40;;;;;;;5.03;1.73;;;;;;;;;;5005372;28;21903;-78
2023/08/09 10:21:26;;;;;;;1.80;1.50;;;;;;;;;;5005722;28;20038;-78
2023/08/09 10:24:12;;;;;;;7.75;3.88;;;;;;;;;;5005468;28;20050;-77
2023/08/09 10:27:01;;;;;;;5.72;2.20;;;;;;;;;;5005423;28;20476;-79
2023/08/09 10:29:57;;;;;;;2.90;1.48;;;;;;;;;;5004927;28;20396;-78
2023/08/09 10:32:51;;;;;;;1.95;1.55;;;;;;;;;;5005788;28;20042;-76
2023/08/09 10:35:48;;;;;;;3.67;2.73;;;;;;;;;;5003754;28;20038;-76
2023/08/09 10:38:34;;;;;;;5.97;2.25;;;;;;;;;;5006225;28;20053;-77
2023/08/09 10:41:25;;;;;;;15.80;8.88;;;;;;;;;;4991040;28;20042;-78
2023/08/09 10:44:11;;;;;;;4.97;1.98;;;;;;;;;;5005488;28;20045;-78
2023/08/09 10:47:04;;;;;;;13.73;7.43;;;;;;;;;;4996502;28;20045;-77
2023/08/09 10:49:53;;;;;;;1.47;1.30;;;;;;;;;;5005294;28;20420;-77
2023/08/09 10:52:48;;;;;;;5.22;3.10;;;;;;;;;;5004932;28;20280;-78
2023/08/09 10:55:35;;;;;;;3.22;2.00;;;;;;;;;;5005036;28;20054;-80
2023/08/09 10:58:27;;;;;;;3.80;1.52;;;;;;;;;;4996462;28;20050;-79
2023/08/09 11:01:14;;;;;;;7.85;5.28;;;;;;;;;;5005125;28;20042;-79
2023/08/09 11:04:01;;;;;;;7.93;2.50;;;;;;;;;;5004533;28;20049;-79
2023/08/09 11:06:48;;;;;;;2.92;1.65;;;;;;;;;;5004905;28;20049;-78
2023/08/09 11:09:34;;;;;;;2.78;1.98;;;;;;;;;;5005623;28;20049;-78
2023/08/09 11:12:23;;;;;;;3.35;1.50;;;;;;;;;;5005524;28;20497;-77
2023/08/09 11:15:11;;;;;;;3.42;1.63;;;;;;;;;;5005285;28;20049;-79
2023/08/09 11:17:56;;;;;;;1.30;1.20;;;;;;;;;;5005806;28;20258;-79
2023/08/09 11:20:44;;;;;;;4.22;1.90;;;;;;;;;;4996358;28;20045;-77
2023/08/09 11:23:30;;;;;;;3.33;1.60;;;;;;;;;;5005005;28;20045;-77
2023/08/09 11:26:16;;;;;;;2.70;1.92;;;;;;;;;;5004825;28;20046;-77
2023/08/09 11:29:04;;;;;;;3.28;2.40;;;;;;;;;;5004514;28;20050;-77
2023/08/09 11:31:53;;;;;;;18.00;9.73;;;;;;;;;;5004893;28;20045;-78
2023/08/09 11:34:38;;;;;;;2.00;1.42;;;;;;;;;;5003977;28;20038;-76
2023/08/09 11:37:25;;;;;;;3.42;2.40;;;;;;;;;;5004235;28;20033;-77
2023/08/09 11:40:12;;;;;;;3.08;2.25;;;;;;;;;;5004466;28;20061;-77
2023/08/09 11:42:58;;;;;;;1.42;1.25;;;;;;;;;;5004339;28;20046;-77
2023/08/09 11:45:54;;;;;;;3.58;2.10;;;;;;;;;;5004684;28;20401;-78
2023/08/09 11:48:41;;;;;;;3.60;2.17;;;;;;;;;;5007765;28;20404;-77
2023/08/09 11:51:29;;;;;;;8.15;5.15;;;;;;;;;;5008121;28;20049;-77
2023/08/09 11:54:14;;;;;;;3.33;1.40;;;;;;;;;;5000471;28;20046;-78
2023/08/09 11:57:05;;;;;;;2.58;1.27;;;;;;;;;;5007465;28;20050;-78
2023/08/09 11:59:54;;;;;;;4.32;1.60;;;;;;;;;;5007491;28;20046;-76
2023/08/09 12:02:39;;;;;;;3.63;1.33;;;;;;;;;;5007538;28;20041;-77
2023/08/09 12:05:24;;;;;;;3.28;1.77;;;;;;;;;;5007264;28;20477;-77
2023/08/09 12:08:09;;;;;;;2.60;1.65;;;;;;;;;;5007146;28;20050;-78
2023/08/09 12:10:54;;;;;;;4.03;2.00;;;;;;;;;;5007387;28;20042;-77
2023/08/09 12:13:40;;;;;;;2.60;1.35;;;;;;;;;;5007606;28;20045;-78
2023/08/09 12:16:26;;;;;;;1.50;1.30;;;;;;;;;;5007685;28;20042;-78
2023/08/09 12:19:11;;;;;;;2.78;1.55;;;;;;;;;;5007298;28;20057;-77
2023/08/09 12:21:58;;;;;;;1.40;1.30;;;;;;;;;;5008079;28;20053;-79
2023/08/09 12:24:43;;;;;;;7.05;4.57;;;;;;;;;;5007416;28;20404;-79
2023/08/09 12:27:29;;;;;;;6.93;4.18;;;;;;;;;;5008227;28;20042;-78
2023/08/09 12:30:14;;;;;;;4.65;1.75;;;;;;;;;;5007510;28;20034;-78
2023/08/09 12:33:01;;;;;;;2.25;1.50;;;;;;;;;;5007600;28;20042;-78
2023/08/09 12:35:47;;;;;;;7.10;3.20;;;;;;;;;;5006916;28;20485;-78
2023/08/09 12:38:33;;;;;;;4.13;1.70;;;;;;;;;;5007078;28;20042;-77
2023/08/09 12:41:18;;;;;;;6.25;3.05;;;;;;;;;;5007355;28;20041;-79
2023/08/09 12:44:04;;;;;;;2.28;1.60;;;;;;;;;;5007254;28;20053;-79
2023/08/09 12:46:51;;;;;;;4.05;1.50;;;;;;;;;;5007279;28;20049;-78
2023/08/09 12:49:36;;;;;;;2.45;1.42;;;;;;;;;;5008211;28;20046;-79
2023/08/09 12:52:22;;;;;;;2.55;1.35;;;;;;;;;;5003165;28;20477;-77
2023/08/09 12:55:08;;;;;;;4.40;1.50;;;;;;;;;;5009869;28;20042;-76
2023/08/09 12:57:54;;;;;;;2.00;1.48;;;;;;;;;;5010293;28;20408;-79
2023/08/09 13:00:40;;;;;;;4.45;1.48;;;;;;;;;;4983926;28;20066;-78
2023/08/09 13:03:26;;;;;;;3.13;1.80;;;;;;;;;;4991286;28;20046;-77
2023/08/09 13:06:11;;;;;;;1.88;1.50;;;;;;;;;;4990661;28;20054;-79
2023/08/09 13:08:59;;;;;;;1.98;1.40;;;;;;;;;;4990975;28;20465;-78
2023/08/09 13:11:48;;;;;;;1.77;1.40;;;;;;;;;;4988232;28;20039;-77
2023/08/09 13:14:33;;;;;;;2.13;1.70;;;;;;;;;;4987558;28;20042;-78
2023/08/09 13:17:19;;;;;;;1.92;1.50;;;;;;;;;;4988171;28;20034;-80
2023/08/09 13:20:05;;;;;;;3.53;1.70;;;;;;;;;;4991704;28;20035;-77
2023/08/09 13:22:50;;;;;;;2.08;1.42;;;;;;;;;;4982070;28;20485;-76
2023/08/09 13:25:36;;;;;;;1.60;1.48;;;;;;;;;;4992055;28;20058;-77
2023/08/09 13:28:23;;;;;;;2.42;1.52;;;;;;;;;;4985777;28;20051;-77
2023/08/09 13:31:10;;;;;;;3.97;2.00;;;;;;;;;;4986239;28;20058;-80
2023/08/09 13:33:56;;;;;;;2.65;1.38;;;;;;;;;;4985303;28;20874;-80
2023/08/09 13:37:07;;;;;;;2.38;1.45;;;;;;;;;;4987402;28;20465;-82
2023/08/09 13:39:53;;;;;;;3.70;1.85;;;;;;;;;;4989267;28;20038;-75
2023/08/09 13:42:39;;;;;;;2.60;1.70;;;;;;;;;;4990335;28;20393;-79
2023/08/09 13:45:24;;;;;;;2.53;1.60;;;;;;;;;;4981849;28;20061;-79
2023/08/09 13:48:11;;;;;;;2.08;1.40;;;;;;;;;;4992151;28;20058;-80
2023/08/09 13:50:56;;;;;;;4.80;1.65;;;;;;;;;;4991316;28;20043;-79
2023/08/09 13:53:42;;;;;;;2.10;1.48;;;;;;;;;;4982513;28;20046;-81
2023/08/09 13:56:28;;;;;;;1.65;1.50;;;;;;;;;;4991293;28;20042;-79
2023/08/09 13:59:14;;;;;;;3.00;1.60;;;;;;;;;;4994859;28;20045;-78
2023/08/09 14:01:59;;;;;;;3.70;1.75;;;;;;;;;;5010826;28;20045;-79
2023/08/09 14:04:44;;;;;;;1.83;1.48;;;;;;;;;;5010078;28;20045;-77
2023/08/09 14:07:30;;;;;;;4.93;1.65;;;;;;;;;;5009505;28;20054;-76
2023/08/09 14:10:15;;;;;;;4.57;1.80;;;;;;;;;;4999819;28;20046;-77
2023/08/09 14:13:01;;;;;;;3.15;1.67;;;;;;;;;;5001605;28;20049;-78
2023/08/09 14:15:48;;;;;;;3.90;2.80;;;;;;;;;;5004753;28;20039;-79
2023/08/09 14:18:33;;;;;;;2.88;1.60;;;;;;;;;;5000709;28;20050;-79
2023/08/09 14:21:19;;;;;;;2.78;1.80;;;;;;;;;;5003052;28;20050;-76
2023/08/09 14:24:05;;;;;;;2.30;1.80;;;;;;;;;;5010264;28;20042;-76
2023/08/09 14:26:51;;;;;;;2.92;2.10;;;;;;;;;;5017436;28;20047;-80
2023/08/09 14:29:42;;;;;;;2.22;1.80;;;;;;;;;;5001714;28;20038;-77
2023/08/09 14:32:28;;;;;;;4.03;1.95;;;;;;;;;;4993123;28;20401;-79
2023/08/09 14:35:14;;;;;;;4.18;2.10;;;;;;;;;;5009288;28;20042;-80
2023/08/09 14:37:59;;;;;;;3.22;2.00;;;;;;;;;;5010008;28;20046;-77
2023/08/09 14:40:46;;;;;;;4.60;1.80;;;;;;;;;;5009634;28;20042;-77
2023/08/09 14:43:31;;;;;;;3.08;1.40;;;;;;;;;;5009260;28;20034;-76
2023/08/09 14:46:17;;;;;;;2.85;1.70;;;;;;;;;;4993198;28;20045;-78
2023/08/09 14:49:03;;;;;;;2.25;1.70;;;;;;;;;;5009484;28;20046;-77
2023/08/09 14:51:49;;;;;;;4.40;1.50;;;;;;;;;;5009152;28;20042;-77
2023/08/09 14:54:35;;;;;;;4.13;1.77;;;;;;;;;;4997234;28;20049;-79
2023/08/09 14:57:20;;;;;;;2.15;1.60;;;;;;;;;;4996364;28;20424;-78
2023/08/09 15:00:09;;;;;;;3.40;1.70;;;;;;;;;;4992971;28;20055;-80
2023/08/09 15:02:55;;;;;;;3.55;1.75;;;;;;;;;;4974033;28;20490;-78
2023/08/09 15:05:40;;;;;;;3.88;1.60;;;;;;;;;;4985016;28;20396;-78
2023/08/09 15:08:27;;;;;;;2.25;1.40;;;;;;;;;;4985040;28;20042;-79
2023/08/09 15:11:12;;;;;;;4.43;1.60;;;;;;;;;;4985471;28;20046;-77
2023/08/09 15:13:58;;;;;;;3.20;1.65;;;;;;;;;;4984055;28;20722;-77
2023/08/09 15:16:44;;;;;;;4.03;1.33;;;;;;;;;;4990586;28;20038;-78
2023/08/09 15:19:30;;;;;;;5.18;1.77;;;;;;;;;;4984563;28;20504;-77
2023/08/09 15:22:15;;;;;;;2.92;1.55;;;;;;;;;;4987773;28;20038;-77
2023/08/09 15:25:15;;;;;;;2.97;1.40;;;;;;;;;;4984242;28;20054;-79
2023/08/09 15:28:00;;;;;;;2.25;1.70;;;;;;;;;;5002033;28;20034;-77
2023/08/09 15:30:45;;;;;;;1.88;1.60;;;;;;;;;;4991122;28;20404;-79
2023/08/09 15:33:31;;;;;;;5.38;1.90;;;;;;;;;;4993987;28;20541;-80
2023/08/09 15:36:16;;;;;;;2.75;1.67;;;;;;;;;;4989851;28;20050;-77
2023/08/09 15:39:02;;;;;;;3.65;1.63;;;;;;;;;;5000659;28;20046;-78
2023/08/09 15:41:48;;;;;;;2.90;1.50;;;;;;;;;;4989975;28;20038;-78
2023/08/09 15:44:33;;;;;;;2.10;1.50;;;;;;;;;;4980333;28;20054;-80
2023/08/09 15:47:18;;;;;;;2.28;1.83;;;;;;;;;;4988164;28;20050;-78
2023/08/09 15:50:04;;;;;;;2.63;1.80;;;;;;;;;;4988430;28;20047;-79
2023/08/09 15:52:50;;;;;;;1.58;1.48;;;;;;;;;;4987470;28;20038;-78
2023/08/09 15:55:36;;;;;;;3.63;1.60;;;;;;;;;;4988367;28;20412;-79
2023/08/09 15:58:21;;;;;;;1.88;1.65;;;;;;;;;;4969862;28;20051;-80
2023/08/09 16:01:07;;;;;;;1.90;1.70;;;;;;;;;;4986661;28;20051;-79
2023/08/09 16:03:52;;;;;;;2.13;1.63;;;;;;;;;;4986699;28;20050;-78
2023/08/09 16:06:38;;;;;;;6.65;1.88;;;;;;;;;;4966620;28;20050;-77
2023/08/09 16:09:24;;;;;;;5.35;3.58;;;;;;;;;;4988039;28;20038;-77
2023/08/09 16:12:10;;;;;;;8.98;3.75;;;;;;;;;;4987578;28;20847;-78
2023/08/09 16:14:56;;;;;;;6.65;3.10;;;;;;;;;;4987419;28;20541;-81
2023/08/09 16:17:41;;;;;;;2.50;2.20;;;;;;;;;;4974161;28;20050;-78
2023/08/09 16:20:26;;;;;;;4.63;2.05;;;;;;;;;;4988109;28;20389;-77
2023/08/09 16:23:11;;;;;;;8.35;1.92;;;;;;;;;;4988710;28;20038;-77
2023/08/09 16:25:57;;;;;;;6.20;1.95;;;;;;;;;;4989051;28;20046;-78
2023/08/09 16:28:42;;;;;;;9.25;2.00;;;;;;;;;;4981004;28;20042;-77
2023/08/09 16:31:28;;;;;;;3.75;1.90;;;;;;;;;;4988682;28;20054;-78
2023/08/09 16:34:14;;;;;;;5.45;2.10;;;;;;;;;;4988477;28;20054;-77